Fair Haven, New York
Current Conditions -  °F | °C
As of 3:54 AM on Saturday 29 Nov 2014 (Local Time) from KFZY Reporting Station
Overcast Overcast  
Wind Chill: 16°   Ceiling: 4900
Heat Index: 24°   Visibility: 10mi
Dew Point: 15°   Wind: 7mph
Humidity: 69%   Direction: 200°SSW
Pressure: 30.21"   Gusts: NA
Location:  43.32°N, 76.7°W
Report Text: KFZY 290854Z AUTO 20006KT 10SM FEW033 OVC049 M04/M09 A3021 RMK AO2 SLP237 T10441094 50001
Loading
Personal Weather Stations






























Interactive Weather Map New forecast layout! Learn more

10-Day Weather Forecast

Advertisements
Track Severe Weather on mobile